Time;durP1;ratioP1;P1;durP2;ratioP2;P2;SDS_P1;SDS_P2;PMS_P1;PMS_P2;Temp;Humidity;BMP_temperature;BMP_pressure;BME280_temperature;BME280_humidity;BME280_pressure;Samples;Min_cycle;Max_cycle;Signal;HPM_P1;HPM_P2
2022/07/31 00:00:10;;;;;;;11.18;7.10;;;17.80;79.90;;;;;;5069466;28;20192;-62
2022/07/31 00:02:37;;;;;;;10.70;7.03;;;17.70;88.10;;;;;;5043018;28;20232;-62
2022/07/31 00:05:05;;;;;;;11.63;7.95;;;17.80;86.20;;;;;;5059922;28;20204;-62
2022/07/31 00:07:32;;;;;;;12.55;8.43;;;17.90;88.00;;;;;;5070551;28;20227;-62
2022/07/31 00:09:58;;;;;;;11.00;7.90;;;17.80;88.30;;;;;;5064480;28;20227;-62
2022/07/31 00:12:25;;;;;;;12.60;8.27;;;17.80;90.00;;;;;;5057203;28;20207;-62
2022/07/31 00:14:52;;;;;;;12.75;8.40;;;17.70;92.30;;;;;;5067523;28;20196;-62
2022/07/31 00:17:21;;;;;;;11.40;8.57;;;17.80;91.60;;;;;;5069245;28;20200;-64
2022/07/31 00:19:47;;;;;;;11.00;8.05;;;17.80;91.30;;;;;;5032055;28;20208;-63
2022/07/31 00:22:15;;;;;;;16.35;8.30;;;17.90;91.50;;;;;;5057641;28;20450;-64
2022/07/31 00:24:41;;;;;;;13.63;8.50;;;17.90;91.20;;;;;;5071942;28;20207;-64
2022/07/31 00:27:09;;;;;;;9.25;8.07;;;18.10;92.10;;;;;;5047547;28;20209;-61
2022/07/31 00:29:36;;;;;;;10.18;7.60;;;17.90;91.00;;;;;;5069673;28;20192;-62
2022/07/31 00:32:03;;;;;;;11.43;8.05;;;18.10;92.00;;;;;;5064648;28;20204;-62
2022/07/31 00:34:32;;;;;;;11.20;8.10;;;17.90;90.70;;;;;;5045511;28;20208;-62
2022/07/31 00:36:58;;;;;;;11.10;8.15;;;18.60;88.50;;;;;;5052608;28;20673;-62
2022/07/31 00:39:25;;;;;;;12.73;7.45;;;17.80;87.00;;;;;;5066495;28;20200;-62
2022/07/31 00:41:53;;;;;;;10.35;7.72;;;17.80;87.50;;;;;;5056058;28;20208;-62
2022/07/31 00:44:21;;;;;;;13.60;7.97;;;17.70;90.90;;;;;;5066253;28;20196;-62
2022/07/31 00:46:48;;;;;;;10.00;7.57;;;17.80;90.30;;;;;;5069730;28;20204;-62
2022/07/31 00:49:14;;;;;;;12.95;8.35;;;20.30;93.30;;;;;;5041847;28;20214;-62
2022/07/31 00:51:43;;;;;;;14.77;7.63;;;17.80;91.00;;;;;;5066780;28;20243;-63
2022/07/31 00:54:10;;;;;;;13.55;7.50;;;;;;;;;;5056356;28;20200;-62
2022/07/31 00:56:37;;;;;;;13.52;8.18;;;17.60;93.00;;;;;;5073007;28;21129;-62
2022/07/31 00:59:04;;;;;;;10.40;7.45;;;17.60;93.30;;;;;;5055593;28;20220;-63
2022/07/31 01:01:32;;;;;;;12.20;8.20;;;;;;;;;;5067949;28;20197;-62
2022/07/31 01:03:59;;;;;;;14.27;8.15;;;18.10;94.40;;;;;;5053635;28;20222;-63
2022/07/31 01:06:26;;;;;;;9.60;7.78;;;;;;;;;;5059772;28;20622;-62
2022/07/31 01:08:54;;;;;;;14.65;8.40;;;17.90;92.70;;;;;;5059104;28;20203;-63
2022/07/31 01:11:27;;;;;;;8.65;7.72;;;17.90;93.30;;;;;;5069852;28;20219;-63
2022/07/31 01:13:59;;;;;;;11.15;8.23;;;17.70;93.90;;;;;;5059034;28;20200;-63
2022/07/31 01:16:30;;;;;;;12.50;8.45;;;17.90;93.30;;;;;;5068393;28;20196;-63
2022/07/31 01:18:59;;;;;;;10.88;8.05;;;17.90;92.80;;;;;;5068911;28;20712;-63
2022/07/31 01:21:32;;;;;;;14.40;8.13;;;17.90;92.90;;;;;;5031807;28;20212;-63
2022/07/31 01:24:14;;;;;;;13.05;8.13;;;17.80;92.80;;;;;;5056667;28;20234;-62
2022/07/31 01:26:49;;;;;;;12.10;8.50;;;17.90;93.20;;;;;;5068162;28;20188;-63
2022/07/31 01:29:22;;;;;;;14.57;8.40;;;17.70;94.40;;;;;;5052640;28;20196;-62
2022/07/31 01:31:56;;;;;;;11.05;7.85;;;17.90;93.20;;;;;;5068070;28;20303;-62
2022/07/31 01:34:27;;;;;;;11.30;8.50;;;17.90;93.00;;;;;;5066542;28;20208;-63
2022/07/31 01:37:00;;;;;;;9.90;7.78;;;17.90;93.40;;;;;;5042551;28;20208;-63
2022/07/31 01:39:30;;;;;;;9.98;8.60;;;17.90;92.30;;;;;;5059236;28;20204;-63
2022/07/31 01:41:58;;;;;;;14.10;8.15;;;17.90;92.60;;;;;;5060578;28;20609;-63
2022/07/31 01:44:27;;;;;;;10.55;7.90;;;17.90;91.90;;;;;;5046605;28;21491;-63
2022/07/31 01:46:56;;;;;;;10.73;7.40;;;17.90;91.80;;;;;;5059744;28;20224;-63
2022/07/31 01:49:23;;;;;;;14.90;7.68;;;17.90;92.20;;;;;;5065055;28;20378;-63
2022/07/31 01:51:51;;;;;;;15.43;7.82;;;18.00;91.90;;;;;;5039531;28;20228;-63
2022/07/31 01:54:19;;;;;;;11.27;7.70;;;17.90;90.70;;;;;;5051875;28;20680;-63
2022/07/31 01:56:48;;;;;;;11.75;8.43;;;17.90;90.20;;;;;;5067909;28;20661;-64
2022/07/31 01:59:17;;;;;;;13.55;7.90;;;18.10;91.70;;;;;;5043341;28;20671;-63
2022/07/31 02:01:47;;;;;;;9.35;8.38;;;18.00;92.30;;;;;;5065110;28;20277;-63
2022/07/31 02:04:15;;;;;;;9.95;8.02;;;17.90;91.70;;;;;;5064829;28;20613;-63
2022/07/31 02:06:43;;;;;;;14.45;8.20;;;18.10;93.00;;;;;;5043039;28;20211;-63
2022/07/31 02:09:11;;;;;;;15.27;7.35;;;17.90;92.20;;;;;;5052850;28;20265;-63
2022/07/31 02:11:38;;;;;;;10.52;7.47;;;17.90;92.30;;;;;;5068492;28;20799;-63
2022/07/31 02:14:05;;;;;;;14.73;7.38;;;17.90;92.50;;;;;;5052972;28;20656;-63
2022/07/31 02:16:32;;;;;;;14.35;7.80;;;17.70;93.30;;;;;;5050308;28;21677;-63
2022/07/31 02:19:02;;;;;;;16.25;7.80;;;18.00;92.40;;;;;;5054335;28;20188;-63
2022/07/31 02:21:29;;;;;;;11.48;7.15;;;18.00;92.00;;;;;;5068477;28;20198;-64
2022/07/31 02:23:56;;;;;;;17.30;8.90;;;18.00;92.20;;;;;;5038004;28;20204;-63
2022/07/31 02:26:25;;;;;;;11.90;7.53;;;18.00;92.30;;;;;;5056042;28;20228;-63
2022/07/31 02:28:53;;;;;;;9.38;7.60;;;17.90;92.70;;;;;;5055737;28;20528;-63
2022/07/31 02:31:23;;;;;;;9.35;7.90;;;17.90;93.20;;;;;;5052818;28;20224;-63
2022/07/31 02:33:51;;;;;;;9.65;7.32;;;17.90;93.70;;;;;;5067294;28;20714;-63
2022/07/31 02:36:21;;;;;;;9.48;8.20;;;18.20;95.30;;;;;;5063515;28;20197;-63
2022/07/31 02:38:50;;;;;;;11.40;7.32;;;18.00;94.10;;;;;;5047614;28;20223;-63
2022/07/31 02:41:17;;;;;;;11.63;7.18;;;20.90;96.10;;;;;;5058042;28;20232;-64
2022/07/31 02:43:46;;;;;;;11.18;7.45;;;18.00;93.50;;;;;;5059863;28;20219;-63
2022/07/31 02:46:14;;;;;;;21.45;7.97;;;18.00;93.40;;;;;;5052779;28;20214;-63
2022/07/31 02:48:41;;;;;;;14.65;7.30;;;18.00;94.00;;;;;;5071992;28;21358;-63
2022/07/31 02:51:09;;;;;;;14.85;7.65;;;18.00;93.70;;;;;;5067999;28;20223;-64
2022/07/31 02:53:37;;;;;;;10.50;6.85;;;17.80;94.60;;;;;;5046559;28;21038;-63
2022/07/31 02:56:08;;;;;;;10.00;6.80;;;17.70;95.50;;;;;;5059862;28;20192;-63
2022/07/31 02:58:34;;;;;;;14.48;7.30;;;18.00;94.00;;;;;;5072210;28;20200;-63
2022/07/31 03:01:03;;;;;;;15.98;7.47;;;18.00;93.90;;;;;;5051891;28;20207;-63
2022/07/31 03:03:30;;;;;;;14.60;6.88;;;;;;;;;;5070246;28;20208;-64
2022/07/31 03:05:57;;;;;;;11.32;7.38;;;18.00;93.40;;;;;;5069440;28;20944;-63
2022/07/31 03:08:24;;;;;;;9.75;7.80;;;18.00;93.70;;;;;;5045834;28;20236;-63
2022/07/31 03:10:53;;;;;;;13.70;7.95;;;18.00;93.70;;;;;;5069241;28;20224;-64
2022/07/31 03:13:22;;;;;;;9.82;7.82;;;18.00;93.90;;;;;;5060528;28;20219;-63
2022/07/31 03:15:50;;;;;;;9.90;7.45;;;18.10;94.00;;;;;;5054495;28;20204;-63
2022/07/31 03:18:20;;;;;;;7.95;7.10;;;18.00;94.00;;;;;;5059455;28;20215;-63
2022/07/31 03:20:50;;;;;;;9.80;7.43;;;18.00;93.10;;;;;;5058786;28;20291;-63
2022/07/31 03:23:19;;;;;;;10.93;7.63;;;18.00;93.30;;;;;;5058556;28;20204;-64
2022/07/31 03:25:48;;;;;;;8.00;6.60;;;18.00;93.40;;;;;;5064251;28;20203;-63
2022/07/31 03:28:18;;;;;;;9.55;7.00;;;17.80;94.10;;;;;;5058839;28;20219;-63
2022/07/31 03:30:44;;;;;;;10.43;7.05;;;18.00;93.40;;;;;;5071465;28;20185;-63
2022/07/31 03:33:11;;;;;;;11.55;6.35;;;18.20;94.00;;;;;;5060190;28;20196;-63
2022/07/31 03:35:38;;;;;;;10.73;6.82;;;18.00;92.80;;;;;;5059478;28;20203;-63
2022/07/31 03:38:05;;;;;;;10.13;6.40;;;18.00;92.90;;;;;;5073689;28;20195;-64
2022/07/31 03:40:32;;;;;;;8.68;7.13;;;18.00;93.10;;;;;;5043991;28;20232;-64
2022/07/31 03:43:01;;;;;;;9.80;6.70;;;17.90;92.50;;;;;;5061753;28;20255;-63
2022/07/31 03:45:31;;;;;;;12.25;6.90;;;20.90;96.30;;;;;;5067068;28;20208;-63
2022/07/31 03:47:57;;;;;;;11.05;7.45;;;17.90;93.40;;;;;;5059350;28;20203;-63
2022/07/31 03:50:25;;;;;;;7.45;5.95;;;17.90;93.10;;;;;;5061169;28;20800;-63
2022/07/31 03:52:52;;;;;;;11.63;7.28;;;17.90;93.40;;;;;;5068854;28;20323;-63
2022/07/31 03:55:19;;;;;;;13.55;7.68;;;17.90;93.60;;;;;;5043974;28;20196;-63
2022/07/31 03:57:47;;;;;;;10.00;7.20;;;17.90;93.10;;;;;;5067838;28;20204;-64
2022/07/31 04:00:15;;;;;;;9.13;7.30;;;17.90;93.20;;;;;;5060298;28;20211;-62
2022/07/31 04:02:44;;;;;;;12.32;7.20;;;18.00;93.10;;;;;;5070089;28;20232;-63
2022/07/31 04:05:10;;;;;;;9.40;7.22;;;17.90;92.00;;;;;;5059707;28;20306;-63
2022/07/31 04:07:37;;;;;;;8.75;7.20;;;17.80;91.70;;;;;;5057038;28;20192;-63
2022/07/31 04:10:05;;;;;;;10.18;7.38;;;17.90;90.90;;;;;;5071685;28;20200;-63
2022/07/31 04:12:31;;;;;;;12.23;7.50;;;17.90;90.20;;;;;;5040506;28;20238;-63
2022/07/31 04:14:58;;;;;;;12.90;8.18;;;17.90;89.70;;;;;;5059528;28;20208;-63
2022/07/31 04:17:25;;;;;;;10.32;6.45;;;17.90;87.90;;;;;;5067241;28;20204;-63
2022/07/31 04:19:53;;;;;;;12.82;7.32;;;17.90;86.70;;;;;;5058717;28;20208;-63
2022/07/31 04:22:20;;;;;;;13.95;7.40;;;18.00;86.30;;;;;;5055172;28;20871;-64
2022/07/31 04:24:47;;;;;;;11.48;7.25;;;17.90;86.00;;;;;;5070199;28;21339;-64
2022/07/31 04:27:15;;;;;;;14.43;7.07;;;18.00;85.90;;;;;;5028325;28;20665;-64
2022/07/31 04:29:43;;;;;;;9.00;6.93;;;17.90;86.30;;;;;;5070802;28;20200;-64
2022/07/31 04:32:10;;;;;;;7.80;6.95;;;18.00;85.40;;;;;;5055305;28;20221;-63
2022/07/31 04:34:36;;;;;;;7.85;6.90;;;18.00;86.00;;;;;;5059431;28;20200;-63
2022/07/31 04:37:05;;;;;;;11.18;6.47;;;18.00;85.70;;;;;;5062481;28;22276;-63
2022/07/31 04:39:31;;;;;;;9.85;7.00;;;16.60;82.30;;;;;;5063018;28;20675;-63
2022/07/31 04:41:58;;;;;;;11.10;7.75;;;18.00;83.50;;;;;;5025850;28;20220;-63
2022/07/31 04:44:25;;;;;;;8.38;6.85;;;20.10;84.60;;;;;;5047677;28;20200;-63
2022/07/31 04:46:52;;;;;;;9.25;6.80;;;18.00;79.50;;;;;;5023833;28;20209;-63
2022/07/31 04:49:19;;;;;;;10.32;7.20;;;18.20;80.70;;;;;;5036645;28;20200;-63
2022/07/31 04:51:45;;;;;;;11.77;6.32;;;18.00;77.50;;;;;;5036282;28;20223;-65
2022/07/31 04:54:13;;;;;;;9.63;7.15;;;18.00;78.20;;;;;;5034287;28;20209;-64
2022/07/31 04:56:43;;;;;;;7.35;6.38;;;17.90;70.60;;;;;;5025397;28;20208;-64
2022/07/31 04:59:12;;;;;;;7.45;6.57;;;17.90;70.70;;;;;;5047699;28;20210;-63
2022/07/31 05:01:41;;;;;;;7.68;5.97;;;18.10;70.60;;;;;;5032529;28;20204;-62
2022/07/31 05:04:08;;;;;;;6.82;5.75;;;17.90;68.30;;;;;;5045409;28;20670;-63
2022/07/31 05:06:37;;;;;;;7.78;5.93;;;18.00;69.90;;;;;;5022922;28;23389;-62
2022/07/31 05:09:05;;;;;;;11.13;6.60;;;17.90;68.10;;;;;;5039098;28;20201;-63
2022/07/31 05:11:34;;;;;;;6.70;6.03;;;17.80;70.10;;;;;;5022261;28;20248;-63
2022/07/31 05:14:03;;;;;;;8.32;6.07;;;17.80;73.30;;;;;;5048186;28;20705;-63
2022/07/31 05:16:31;;;;;;;10.65;5.70;;;17.90;76.60;;;;;;5030569;28;20212;-62
2022/07/31 05:18:58;;;;;;;6.68;5.70;;;17.90;81.00;;;;;;5049493;28;20200;-62
2022/07/31 05:21:27;;;;;;;9.32;5.68;;;17.90;78.50;;;;;;5035509;28;20211;-63
2022/07/31 05:23:54;;;;;;;11.45;6.53;;;18.00;78.30;;;;;;5039387;28;20209;-62
2022/07/31 05:26:21;;;;;;;8.38;6.13;;;18.00;75.70;;;;;;5035635;28;20209;-62
2022/07/31 05:28:50;;;;;;;9.85;5.45;;;18.00;71.60;;;;;;5039047;28;20259;-62
2022/07/31 05:31:18;;;;;;;8.32;5.93;;;18.00;72.00;;;;;;5039403;28;20201;-63
2022/07/31 05:33:46;;;;;;;7.15;5.68;;;18.00;70.60;;;;;;5047363;28;20196;-61
2022/07/31 05:36:13;;;;;;;6.30;5.60;;;17.40;71.20;;;;;;5038412;28;20208;-62
2022/07/31 05:38:40;;;;;;;7.05;5.07;;;;;;;;;;5034699;28;20204;-63
2022/07/31 05:41:07;;;;;;;8.50;4.93;;;18.40;65.80;;;;;;5049711;28;20247;-63
2022/07/31 05:43:34;;;;;;;5.35;4.60;;;18.20;62.20;;;;;;5029270;28;20373;-63
2022/07/31 05:46:04;;;;;;;6.10;4.47;;;18.30;60.60;;;;;;5068444;28;20196;-63
2022/07/31 05:48:31;;;;;;;9.75;4.15;;;18.30;51.60;;;;;;5052058;28;20200;-63
2022/07/31 05:50:58;;;;;;;6.78;4.05;;;18.30;48.80;;;;;;5067676;28;20201;-63
2022/07/31 05:53:25;;;;;;;5.25;4.20;;;18.50;39.40;;;;;;5050643;28;20227;-63
2022/07/31 05:55:52;;;;;;;7.82;4.22;;;18.40;32.20;;;;;;5052220;28;20204;-62
2022/07/31 05:58:20;;;;;;;4.95;3.80;;;18.40;30.80;;;;;;5026807;28;20228;-63
2022/07/31 06:00:48;;;;;;;7.03;3.88;;;18.50;26.30;;;;;;5062650;28;20196;-64
2022/07/31 06:03:23;;;;;;;4.18;3.47;;;18.50;15.70;;;;;;5044379;28;20200;-63
2022/07/31 06:05:50;;;;;;;5.47;3.67;;;18.50;8.30;;;;;;5043207;28;20231;-64
2022/07/31 06:08:17;;;;;;;4.78;4.05;;;18.50;4.60;;;;;;5044717;28;20231;-64
2022/07/31 06:10:43;;;;;;;5.38;3.40;;;18.50;1.00;;;;;;5039837;28;20203;-63
2022/07/31 06:13:10;;;;;;;5.03;3.38;;;18.50;1.00;;;;;;5043126;28;20233;-64
2022/07/31 06:15:37;;;;;;;4.75;3.47;;;18.50;1.00;;;;;;5067501;28;20621;-64
2022/07/31 06:18:04;;;;;;;4.40;3.33;;;18.60;1.00;;;;;;5029152;28;20489;-64
2022/07/31 06:20:33;;;;;;;6.25;3.42;;;18.60;1.00;;;;;;5066474;28;20201;-63
2022/07/31 06:22:59;;;;;;;3.28;2.97;;;18.60;1.00;;;;;;5035389;28;20197;-63
2022/07/31 06:25:27;;;;;;;5.35;3.08;;;;;;;;;;5055726;28;20204;-64
2022/07/31 06:27:54;;;;;;;4.70;2.95;;;;;;;;;;5052751;28;20910;-63
2022/07/31 06:30:20;;;;;;;5.00;2.85;;;18.80;1.00;;;;;;5035945;28;20212;-64
2022/07/31 06:32:47;;;;;;;3.33;2.33;;;17.90;1.00;;;;;;5051198;28;20228;-64
2022/07/31 06:35:14;;;;;;;3.53;2.75;;;18.80;1.00;;;;;;5063179;28;20810;-64
2022/07/31 06:37:42;;;;;;;4.43;2.58;;;18.80;1.00;;;;;;5050347;28;20227;-65
2022/07/31 06:40:10;;;;;;;6.45;2.70;;;18.70;1.00;;;;;;5055380;28;20234;-65
2022/07/31 06:42:37;;;;;;;3.88;2.72;;;19.00;1.00;;;;;;5043479;28;20989;-63
2022/07/31 06:45:05;;;;;;;3.33;2.70;;;19.10;1.00;;;;;;5041704;28;20208;-64
2022/07/31 06:47:32;;;;;;;6.72;2.78;;;19.10;1.00;;;;;;5071257;28;20204;-63
2022/07/31 06:49:58;;;;;;;3.13;2.50;;;19.10;1.00;;;;;;5056981;28;20310;-64
2022/07/31 06:52:25;;;;;;;4.65;2.60;;;19.30;1.00;;;;;;5056530;28;20227;-63
2022/07/31 06:54:53;;;;;;;3.08;2.35;;;19.20;1.00;;;;;;5053180;28;20226;-65
2022/07/31 06:57:20;;;;;;;3.58;2.17;;;19.20;1.00;;;;;;5043626;28;20208;-64
2022/07/31 06:59:47;;;;;;;4.55;2.30;;;19.30;1.00;;;;;;5035931;28;20204;-64
2022/07/31 07:02:14;;;;;;;4.80;2.28;;;19.20;1.00;;;;;;5065204;28;20204;-65
2022/07/31 07:04:40;;;;;;;3.22;2.20;;;19.40;99.90;;;;;;5055450;28;20716;-64
2022/07/31 07:07:07;;;;;;;4.13;2.28;;;19.40;99.90;;;;;;5051644;28;20725;-64
2022/07/31 07:09:34;;;;;;;2.25;2.05;;;19.50;99.90;;;;;;5048615;28;23428;-64
2022/07/31 07:12:02;;;;;;;2.10;1.90;;;;;;;;;;5050093;28;20220;-64
2022/07/31 07:14:30;;;;;;;4.05;2.30;;;19.60;99.90;;;;;;5024061;28;20217;-64
2022/07/31 07:16:56;;;;;;;5.03;1.92;;;19.20;99.90;;;;;;5048184;28;21749;-63
2022/07/31 07:19:23;;;;;;;2.13;1.92;;;19.60;99.90;;;;;;5057445;28;20212;-64
2022/07/31 07:21:50;;;;;;;5.43;2.10;;;;;;;;;;5051623;28;20211;-64
2022/07/31 07:24:18;;;;;;;2.88;2.15;;;19.60;99.90;;;;;;5057847;28;20232;-64
2022/07/31 07:26:44;;;;;;;2.03;1.83;;;19.60;99.90;;;;;;5042416;28;20216;-63
2022/07/31 07:29:13;;;;;;;2.75;1.92;;;21.00;99.90;;;;;;5023811;28;20601;-64
2022/07/31 07:31:40;;;;;;;5.03;1.98;;;19.60;99.90;;;;;;5065460;28;20223;-63
2022/07/31 07:34:08;;;;;;;4.47;2.17;;;19.40;99.90;;;;;;5059639;28;20585;-64
2022/07/31 07:36:35;;;;;;;4.32;2.03;;;19.60;99.90;;;;;;5048988;28;20211;-65
2022/07/31 07:39:02;;;;;;;3.00;1.65;;;19.60;99.90;;;;;;5050973;28;20211;-65
2022/07/31 07:41:29;;;;;;;5.82;1.73;;;19.90;99.90;;;;;;5053762;28;20717;-64
2022/07/31 07:43:56;;;;;;;5.78;1.83;;;19.70;99.90;;;;;;5033809;28;20581;-64
2022/07/31 07:46:24;;;;;;;6.05;2.33;;;19.70;99.90;;;;;;5037616;28;21007;-64
2022/07/31 07:48:51;;;;;;;6.80;1.90;;;19.80;99.90;;;;;;5058787;28;20197;-64
2022/07/31 07:51:18;;;;;;;3.17;1.90;;;19.80;99.90;;;;;;5041951;28;20217;-64
2022/07/31 07:53:45;;;;;;;2.42;2.00;;;19.90;95.40;;;;;;5049384;28;20236;-64
2022/07/31 07:56:12;;;;;;;2.15;1.92;;;20.30;99.90;;;;;;5054393;28;20214;-63
2022/07/31 07:58:39;;;;;;;5.72;2.40;;;19.80;65.30;;;;;;5021098;28;21025;-65
2022/07/31 08:01:06;;;;;;;3.88;2.70;;;19.90;45.70;;;;;;5035930;28;20576;-64
2022/07/31 08:03:34;;;;;;;5.20;2.33;;;20.00;36.30;;;;;;5062764;28;20224;-64
2022/07/31 08:06:01;;;;;;;4.65;2.10;;;20.00;1.00;;;;;;5054995;28;20220;-64
2022/07/31 08:08:28;;;;;;;2.90;2.05;;;20.00;1.00;;;;;;5034795;28;20200;-63
2022/07/31 08:10:55;;;;;;;3.72;2.25;;;20.10;1.00;;;;;;5036980;28;20875;-65
2022/07/31 08:13:22;;;;;;;3.08;2.15;;;20.10;1.00;;;;;;5043950;28;20365;-64
2022/07/31 08:15:49;;;;;;;4.28;2.30;;;20.10;1.00;;;;;;5040002;28;20876;-63
2022/07/31 08:18:16;;;;;;;3.35;1.80;;;20.30;1.00;;;;;;5052439;28;20362;-64
2022/07/31 08:20:44;;;;;;;6.68;2.10;;;20.30;1.00;;;;;;5069917;28;20232;-65
2022/07/31 08:23:11;;;;;;;2.50;2.30;;;20.40;1.00;;;;;;5036250;28;20212;-65
2022/07/31 08:25:38;;;;;;;2.50;2.20;;;20.50;1.00;;;;;;5055331;28;20199;-64
2022/07/31 08:28:05;;;;;;;2.75;1.98;;;20.50;99.90;;;;;;5052321;28;20219;-64
2022/07/31 08:30:32;;;;;;;3.65;2.10;;;20.70;99.90;;;;;;5021715;28;20416;-64
2022/07/31 08:32:59;;;;;;;2.83;1.85;;;20.60;93.70;;;;;;5036649;28;20232;-64
2022/07/31 08:35:26;;;;;;;4.10;2.10;;;20.60;99.90;;;;;;5033840;28;20979;-64
2022/07/31 08:37:54;;;;;;;4.22;1.60;;;20.60;1.00;;;;;;5048672;28;20228;-65
2022/07/31 08:40:21;;;;;;;9.85;2.25;;;20.40;1.00;;;;;;5030020;28;20231;-63
2022/07/31 08:42:48;;;;;;;2.67;1.90;;;20.70;1.00;;;;;;5046936;28;20232;-64
2022/07/31 08:45:15;;;;;;;5.18;1.88;;;20.90;1.00;;;;;;5038141;28;20224;-64
2022/07/31 08:47:46;;;;;;;1.80;1.70;;;20.80;1.00;;;;;;5028209;28;20208;-64
2022/07/31 08:50:15;;;;;;;5.18;1.80;;;20.80;1.00;;;;;;5052260;28;20208;-64
2022/07/31 08:52:43;;;;;;;5.45;2.20;;;20.90;99.90;;;;;;5062093;28;20598;-64
2022/07/31 08:55:12;;;;;;;1.65;1.55;;;20.90;1.00;;;;;;5047980;28;20867;-65
2022/07/31 08:57:39;;;;;;;5.68;2.28;;;21.10;61.50;;;;;;5044553;28;20207;-64
2022/07/31 09:00:09;;;;;;;4.65;2.10;;;21.10;1.00;;;;;;5039453;28;20201;-64
2022/07/31 09:02:38;;;;;;;1.92;1.70;;;20.90;99.90;;;;;;5023117;28;21943;-64
2022/07/31 09:05:06;;;;;;;4.47;2.00;;;21.70;15.60;;;;;;5038365;28;20297;-64
2022/07/31 09:07:33;;;;;;;7.10;2.00;;;21.50;1.00;;;;;;5059098;28;20227;-64
2022/07/31 09:09:59;;;;;;;3.17;1.60;;;21.50;99.90;;;;;;5065296;28;20209;-64
2022/07/31 09:12:29;;;;;;;3.08;1.80;;;21.60;1.00;;;;;;5031636;28;20309;-64
2022/07/31 09:14:57;;;;;;;2.40;2.20;;;21.80;96.20;;;;;;5052850;28;20204;-64
2022/07/31 09:17:32;;;;;;;3.20;1.90;;;22.20;99.90;;;;;;5017580;28;20742;-64
2022/07/31 09:19:59;;;;;;;3.83;2.20;;;22.00;1.00;;;;;;5051653;28;20223;-64
2022/07/31 09:22:30;;;;;;;2.83;2.00;;;21.60;1.00;;;;;;5049351;28;20324;-63
2022/07/31 09:25:10;;;;;;;2.60;1.75;;;22.00;99.90;;;;;;5059978;28;20212;-64
2022/07/31 09:27:39;;;;;;;5.68;3.55;;;21.90;1.00;;;;;;5051782;28;20777;-63
2022/07/31 09:30:08;;;;;;;10.93;6.10;;;22.00;1.00;;;;;;5045989;28;20204;-63
2022/07/31 09:32:35;;;;;;;16.55;5.43;;;21.90;1.00;;;;;;5035809;28;20200;-63
2022/07/31 09:35:10;;;;;;;8.35;3.90;;;22.00;1.00;;;;;;5043828;28;20200;-63
2022/07/31 09:37:37;;;;;;;2.75;2.53;;;22.00;1.00;;;;;;5046130;28;20791;-63
2022/07/31 09:40:06;;;;;;;2.25;1.90;;;22.10;1.00;;;;;;5066498;28;20319;-64
2022/07/31 09:42:41;;;;;;;4.88;1.85;;;22.00;1.00;;;;;;5048762;28;20203;-64
2022/07/31 09:45:24;;;;;;;2.65;1.83;;;22.00;99.90;;;;;;5050270;28;20222;-63
2022/07/31 09:48:04;;;;;;;1.88;1.77;;;22.00;99.90;;;;;;5047010;28;20227;-64
2022/07/31 09:50:31;;;;;;;3.42;2.30;;;22.10;99.90;;;;;;4995724;28;20248;-63
2022/07/31 09:52:59;;;;;;;3.38;1.90;;;22.10;99.90;;;;;;5063850;28;20207;-63
2022/07/31 09:55:27;;;;;;;5.53;2.00;;;23.30;1.00;;;;;;5044589;28;20640;-63
2022/07/31 09:57:57;;;;;;;3.90;1.95;;;22.10;1.00;;;;;;5035232;28;20220;-64
2022/07/31 10:00:26;;;;;;;4.82;2.13;;;22.30;99.90;;;;;;5043800;28;20223;-63
2022/07/31 10:02:54;;;;;;;4.00;2.00;;;22.10;99.90;;;;;;5028536;28;20247;-63
2022/07/31 10:05:23;;;;;;;5.20;2.25;;;22.10;99.90;;;;;;5037360;28;20212;-63
2022/07/31 10:07:50;;;;;;;4.78;1.88;;;;;;;;;;5044504;28;20192;-63
2022/07/31 10:10:18;;;;;;;2.95;2.58;;;22.20;1.00;;;;;;5063690;28;20295;-64
2022/07/31 10:12:51;;;;;;;2.25;2.05;;;22.20;99.90;;;;;;5039976;28;20201;-63
2022/07/31 10:15:20;;;;;;;5.40;1.90;;;22.10;99.90;;;;;;5050971;28;20228;-64
2022/07/31 10:17:49;;;;;;;5.03;1.92;;;22.10;99.90;;;;;;5053830;28;20231;-64
2022/07/31 10:20:20;;;;;;;5.15;2.20;;;22.40;99.90;;;;;;5038189;28;20200;-64
2022/07/31 10:22:49;;;;;;;3.65;1.90;;;;;;;;;;5040664;28;20278;-63
2022/07/31 10:25:20;;;;;;;6.38;2.03;;;22.30;99.90;;;;;;5067447;28;20377;-63
2022/07/31 10:27:48;;;;;;;2.72;2.33;;;22.20;99.90;;;;;;5051275;28;20282;-63
2022/07/31 10:30:15;;;;;;;4.55;2.17;;;22.20;99.90;;;;;;5071168;28;20985;-64
2022/07/31 10:32:43;;;;;;;5.53;1.83;;;22.20;99.90;;;;;;5041886;28;20200;-63
2022/07/31 10:35:11;;;;;;;2.88;2.10;;;22.50;1.00;;;;;;5033021;28;20237;-63
2022/07/31 10:37:43;;;;;;;8.15;2.00;;;22.30;1.00;;;;;;5055001;28;20228;-63
2022/07/31 10:40:21;;;;;;;2.75;2.13;;;22.70;1.00;;;;;;5033047;28;20243;-63
2022/07/31 10:42:52;;;;;;;1.90;1.77;;;22.70;1.00;;;;;;5037944;28;20204;-64
2022/07/31 10:45:19;;;;;;;4.15;2.17;;;22.70;99.90;;;;;;5065958;28;20213;-64
2022/07/31 10:47:58;;;;;;;3.88;2.38;;;22.70;99.90;;;;;;5040708;28;20204;-63
2022/07/31 10:50:28;;;;;;;4.63;2.33;;;22.90;99.90;;;;;;5065339;28;20749;-63
2022/07/31 10:52:55;;;;;;;2.55;1.95;;;19.20;99.90;;;;;;5022924;28;20227;-64
2022/07/31 10:55:25;;;;;;;2.40;2.20;;;22.80;99.90;;;;;;5049073;28;20232;-63
2022/07/31 10:57:53;;;;;;;3.47;2.40;;;22.80;99.90;;;;;;5046079;28;20231;-63
2022/07/31 11:00:22;;;;;;;3.65;2.38;;;22.80;99.90;;;;;;5034501;28;20204;-64
2022/07/31 11:02:49;;;;;;;13.20;2.72;;;22.90;99.90;;;;;;5052072;28;21248;-63
2022/07/31 11:05:21;;;;;;;4.80;2.70;;;22.70;99.90;;;;;;5040153;28;20235;-64
2022/07/31 11:08:00;;;;;;;3.80;2.45;;;22.80;99.90;;;;;;5032389;28;20599;-64
2022/07/31 11:10:30;;;;;;;4.78;2.60;;;22.70;99.90;;;;;;5053941;28;20223;-64
2022/07/31 11:13:03;;;;;;;6.32;2.90;;;22.90;99.90;;;;;;5035733;28;20256;-63
2022/07/31 11:15:30;;;;;;;4.30;2.67;;;22.90;99.90;;;;;;5054287;28;20227;-63
2022/07/31 11:17:57;;;;;;;6.07;2.47;;;22.70;99.90;;;;;;5047744;28;20425;-63
2022/07/31 11:20:28;;;;;;;3.58;2.22;;;22.80;99.90;;;;;;5066026;28;21738;-63
2022/07/31 11:22:57;;;;;;;2.97;2.40;;;22.80;99.90;;;;;;5021266;28;20369;-63
2022/07/31 11:25:24;;;;;;;2.47;2.28;;;22.80;99.90;;;;;;5051967;28;20208;-64
2022/07/31 11:27:51;;;;;;;5.50;2.33;;;22.60;99.90;;;;;;5056455;28;20588;-63
2022/07/31 11:30:18;;;;;;;3.28;2.20;;;22.60;99.90;;;;;;5046741;28;20219;-63
2022/07/31 11:32:49;;;;;;;5.88;2.72;;;22.60;99.90;;;;;;5059635;28;20681;-64
2022/07/31 11:35:31;;;;;;;2.50;2.30;;;22.70;99.90;;;;;;5065540;28;20643;-63
2022/07/31 11:37:59;;;;;;;7.32;2.55;;;20.70;99.90;;;;;;5053078;28;20215;-64
2022/07/31 11:40:26;;;;;;;6.85;3.08;;;22.50;99.90;;;;;;5043362;28;20229;-63
2022/07/31 11:42:54;;;;;;;4.50;2.90;;;22.60;99.90;;;;;;5053187;28;20210;-63
2022/07/31 11:45:21;;;;;;;3.95;2.88;;;22.60;99.90;;;;;;5054495;28;20815;-63
2022/07/31 11:47:50;;;;;;;5.40;2.30;;;22.60;99.90;;;;;;5053468;28;20197;-64
2022/07/31 11:50:17;;;;;;;2.60;2.40;;;22.80;99.90;;;;;;5049697;28;20219;-63
2022/07/31 11:52:46;;;;;;;3.70;2.75;;;22.60;99.90;;;;;;5068897;28;20246;-64
2022/07/31 11:55:14;;;;;;;6.43;2.97;;;;;;;;;;5026357;28;25092;-63
2022/07/31 11:57:42;;;;;;;4.10;2.75;;;22.40;99.90;;;;;;5070912;28;20192;-63
2022/07/31 12:00:11;;;;;;;4.30;2.58;;;22.50;99.90;;;;;;5040380;28;20204;-64
2022/07/31 12:02:43;;;;;;;5.38;3.15;;;22.50;99.90;;;;;;5067624;28;21722;-63
2022/07/31 12:05:12;;;;;;;4.90;3.10;;;22.50;1.00;;;;;;5056601;28;20208;-64
2022/07/31 12:07:40;;;;;;;3.70;3.05;;;22.50;1.00;;;;;;5052999;28;20220;-64
2022/07/31 12:10:10;;;;;;;4.05;3.13;;;22.50;1.00;;;;;;5022101;28;20235;-64
2022/07/31 12:12:38;;;;;;;5.47;2.92;;;22.60;1.00;;;;;;5048415;28;20224;-63
2022/07/31 12:15:17;;;;;;;4.75;3.22;;;19.80;1.00;;;;;;5030129;28;24443;-63
2022/07/31 12:17:44;;;;;;;4.03;2.97;;;22.90;1.00;;;;;;5051737;28;20228;-63
2022/07/31 12:20:12;;;;;;;17.90;6.15;;;22.60;1.00;;;;;;5047680;28;20220;-63
2022/07/31 12:22:40;;;;;;;5.55;3.92;;;22.60;1.00;;;;;;5062756;28;20222;-63
2022/07/31 12:25:11;;;;;;;10.30;4.80;;;22.60;1.00;;;;;;5022059;28;20208;-64
2022/07/31 12:27:38;;;;;;;5.50;4.97;;;22.40;1.00;;;;;;5045705;28;20253;-63
2022/07/31 12:30:15;;;;;;;7.32;4.65;;;22.20;99.90;;;;;;5054390;28;20204;-63
2022/07/31 12:32:43;;;;;;;7.50;5.68;;;22.00;99.90;;;;;;5036563;28;20204;-64
2022/07/31 12:35:10;;;;;;;6.32;5.40;;;21.90;99.90;;;;;;5055764;28;20219;-64
2022/07/31 12:37:44;;;;;;;7.05;5.55;;;21.70;99.90;;;;;;5066718;28;20200;-65
2022/07/31 12:40:23;;;;;;;9.18;5.97;;;21.50;99.90;;;;;;5049197;28;21082;-65
2022/07/31 12:42:50;;;;;;;7.18;6.38;;;21.50;99.90;;;;;;5018022;28;20251;-64
2022/07/31 12:45:27;;;;;;;8.07;7.30;;;21.50;99.90;;;;;;5045478;28;20231;-64
2022/07/31 12:47:55;;;;;;;9.75;6.93;;;21.30;1.00;;;;;;5056571;28;22523;-64
2022/07/31 12:50:22;;;;;;;8.98;6.82;;;21.60;99.90;;;;;;5044615;28;20780;-64
2022/07/31 12:52:49;;;;;;;10.95;7.38;;;21.10;99.90;;;;;;5069808;28;20204;-64
2022/07/31 12:55:16;;;;;;;7.78;6.97;;;21.10;99.90;;;;;;5063779;28;20239;-64